Bonnet Shores, Rhode Island
Current Conditions -  °F | °C
As of 11:17 PM on Sunday 21 Dec 2014 (Local Time) from KUUU Reporting Station
Overcast Overcast  
Wind Chill: 27°   Ceiling: 2500
Heat Index: 34°   Visibility: 10mi
Dew Point: 32°   Wind: 8mph
Humidity: 92%   Direction: 10°N
Pressure: 30.33"   Gusts: NA
Location:  41.4075°N, 71.4775°W
Report Text: KUUU 220417Z AUTO 01007KT 10SM BKN025 OVC050 01/00 A3033 RMK AO2 T00110000
Loading
Personal Weather Stations






























Interactive Weather Map New forecast layout! Learn more

10-Day Weather Forecast

Advertisements
Track Severe Weather on mobile